Time;durP1;ratioP1;P1;durP2;ratioP2;P2;SDS_P1;SDS_P2;PMS_P1;PMS_P2;Temp;Humidity;BMP_temperature;BMP_pressure;BME280_temperature;BME280_humidity;BME280_pressure;Samples;Min_cycle;Max_cycle;Signal;HPM_P1;HPM_P2
2022/04/15 00:03:56;;;;;;;63.00;58.60;;;;;;;10.98;100.00;102452.49;1893325;74;86756;-75
2022/04/15 00:09:40;;;;;;;62.63;58.10;;;;;;;10.91;100.00;102456.83;1892322;73;86262;-72
2022/04/15 00:15:27;;;;;;;60.57;56.23;;;;;;;10.92;100.00;102461.27;1871569;75;86476;-71
2022/04/15 00:21:12;;;;;;;57.33;53.03;;;;;;;10.78;100.00;102472.41;1979089;71;39556;-71
2022/04/15 00:26:56;;;;;;;62.57;57.90;;;;;;;10.95;100.00;102474.70;1814310;76;86377;-71
2022/04/15 00:32:41;;;;;;;60.33;55.43;;;;;;;10.90;100.00;102478.77;1876187;75;86624;-73
2022/04/15 00:38:27;;;;;;;57.40;53.10;;;;;;;10.82;100.00;102490.28;1802425;77;86574;-71
2022/04/15 00:44:11;;;;;;;62.90;58.23;;;;;;;10.66;100.00;102485.47;1983779;71;39419;-71
2022/04/15 00:49:57;;;;;;;62.17;57.87;;;;;;;10.47;100.00;102493.15;1841786;76;86476;-75
2022/04/15 00:55:43;;;;;;;58.70;54.50;;;;;;;10.14;100.00;102498.47;1808460;78;86587;-74
2022/04/15 01:01:27;;;;;;;55.37;51.37;;;;;;;9.92;100.00;102496.84;1870640;75;85687;-74
2022/04/15 01:07:15;;;;;;;59.03;54.93;;;;;;;9.74;100.00;102498.33;1981706;71;39665;-72
2022/04/15 01:13:02;;;;;;;60.13;55.93;;;;;;;9.89;100.00;102500.08;1980369;71;39693;-72
2022/04/15 01:18:46;;;;;;;57.03;52.83;;;;;;;9.94;100.00;102502.98;1887521;74;86498;-74
2022/04/15 01:24:31;;;;;;;58.03;53.53;;;;;;;9.98;100.00;102506.97;1880245;74;86616;-71
2022/04/15 01:30:17;;;;;;;56.17;51.77;;;;;;;9.90;100.00;102506.78;1945083;72;85532;-74
2022/04/15 01:36:03;;;;;;;56.13;52.13;;;;;;;9.47;100.00;102510.39;1985847;71;39613;-71
2022/04/15 01:41:48;;;;;;;58.60;54.50;;;;;;;9.33;100.00;102515.83;1844628;76;85610;-74
2022/04/15 01:47:33;;;;;;;59.63;55.33;;;;;;;9.39;100.00;102530.16;1878284;75;85684;-74
2022/04/15 01:53:15;;;;;;;59.73;55.63;;;;;;;9.47;100.00;102532.59;1922293;73;85558;-72
2022/04/15 01:58:58;;;;;;;60.07;55.80;;;;;;;9.37;100.00;102545.63;1797306;78;85840;-71
2022/04/15 02:04:45;;;;;;;61.77;57.47;;;;;;;9.45;100.00;102545.86;1881332;74;86019;-72
2022/04/15 02:10:29;;;;;;;59.87;55.70;;;;;;;9.53;100.00;102549.69;1880451;73;85519;-72
2022/04/15 02:16:13;;;;;;;58.83;54.83;;;;;;;9.36;100.00;102553.67;1910498;72;86143;-73
2022/04/15 02:21:58;;;;;;;59.03;54.93;;;;;;;9.37;100.00;102558.68;1801028;78;86440;-74
2022/04/15 02:27:44;;;;;;;58.63;54.60;;;;;;;9.33;100.00;102562.44;1894864;75;86150;-74
2022/04/15 02:33:28;;;;;;;59.80;55.57;;;;;;;9.26;100.00;102558.92;1801751;77;86255;-70
2022/04/15 02:39:13;;;;;;;61.50;57.10;;;;;;;9.24;100.00;102560.25;1822337;77;86293;-74
2022/04/15 02:45:00;;;;;;;58.07;54.13;;;;;;;8.97;100.00;102556.45;1809455;77;86423;-71
2022/04/15 02:50:47;;;;;;;56.83;52.80;;;;;;;8.73;100.00;102551.02;1876197;74;86419;-73
2022/04/15 02:56:33;;;;;;;55.90;52.10;;;;;;;8.43;100.00;102544.83;1937412;73;86477;-71
2022/04/15 03:02:16;;;;;;;52.00;48.50;;;;;;;8.13;100.00;102547.98;1921246;74;86362;-75
2022/04/15 03:08:00;;;;;;;55.67;51.77;;;;;;;8.54;100.00;102549.62;1985159;71;39606;-73
2022/04/15 03:13:44;;;;;;;57.43;53.37;;;;;;;8.56;100.00;102554.38;1897613;74;85559;-74
2022/04/15 03:19:29;;;;;;;55.97;51.67;;;;;;;8.81;100.00;102550.16;1885666;75;86376;-73
2022/04/15 03:25:20;;;;;;;55.53;51.43;;;;;;;8.70;100.00;102537.06;1945155;73;86038;-72
2022/04/15 03:31:05;;;;;;;55.90;51.97;;;;;;;8.49;100.00;102548.08;1973315;71;39575;-71
2022/04/15 03:36:49;;;;;;;55.17;51.33;;;;;;;8.44;100.00;102548.45;1835584;75;85760;-71
2022/04/15 03:42:46;;;;;;;56.70;52.70;;;;;;;8.44;100.00;102548.45;1885872;74;86064;-76
2022/04/15 03:48:30;;;;;;;54.10;50.00;;;;;;;8.42;100.00;102558.92;1895558;74;86292;-73
2022/04/15 03:54:14;;;;;;;56.93;52.83;;;;;;;8.56;100.00;102564.61;1927035;72;85488;-74
2022/04/15 03:59:57;;;;;;;54.47;50.37;;;;;;;8.73;100.00;102567.64;1809806;78;85435;-74
2022/04/15 04:05:44;;;;;;;54.80;50.90;;;;;;;8.49;100.00;102567.99;1808525;78;86362;-72
2022/04/15 04:11:28;;;;;;;53.07;49.37;;;;;;;7.82;100.00;102577.12;1800298;77;86310;-72
2022/04/15 04:17:12;;;;;;;51.97;48.37;;;;;;;7.49;100.00;102585.63;1948172;73;87355;-72
2022/04/15 04:22:57;;;;;;;51.20;47.63;;;;;;;7.73;100.00;102582.93;1845681;76;86628;-75
2022/04/15 04:28:42;;;;;;;52.83;49.13;;;;;;;7.97;100.00;102587.30;1809037;78;86495;-74
2022/04/15 04:34:26;;;;;;;53.63;49.63;;;;;;;8.22;100.00;102584.84;1800142;77;86211;-72
2022/04/15 04:40:13;;;;;;;53.83;49.93;;;;;;;8.06;100.00;102587.34;1981665;71;39737;-74
2022/04/15 04:45:59;;;;;;;53.13;49.23;;;;;;;8.26;100.00;102589.95;1809631;78;85457;-74
2022/04/15 04:51:43;;;;;;;53.97;50.07;;;;;;;8.04;100.00;102583.43;1808172;78;86801;-74
2022/04/15 04:57:28;;;;;;;53.33;49.37;;;;;;;7.90;100.00;102587.38;1807414;77;86443;-72
2022/04/15 05:03:13;;;;;;;53.33;49.43;;;;;;;7.79;100.00;102592.23;1979283;71;39604;-74
2022/04/15 05:08:57;;;;;;;54.67;50.57;;;;;;;8.10;100.00;102587.19;1807598;78;86560;-74
2022/04/15 05:14:44;;;;;;;61.33;57.30;;;;;;;8.07;100.00;102592.66;1806971;78;86291;-73
2022/04/15 05:20:29;;;;;;;58.67;54.47;;;;;;;8.04;100.00;102595.89;1797928;77;85512;-74
2022/04/15 05:26:13;;;;;;;57.93;54.03;;;;;;;8.03;100.00;102596.95;1819015;77;86464;-71
2022/04/15 05:31:57;;;;;;;60.57;56.43;;;;;;;8.04;100.00;102600.03;1979324;71;86449;-71
2022/04/15 05:37:44;;;;;;;58.57;54.37;;;;;;;8.09;100.00;102607.62;1796356;78;86411;-74
2022/04/15 05:43:29;;;;;;;53.30;49.50;;;;;;;8.14;100.00;102605.04;1853410;76;86328;-75
2022/04/15 05:49:15;;;;;;;58.87;54.57;;;;;;;8.13;100.00;102613.02;1928159;73;85498;-74
2022/04/15 05:54:59;;;;;;;57.93;53.60;;;;;;;8.28;100.00;102622.39;1977423;71;39504;-71
2022/04/15 06:00:42;;;;;;;55.33;51.23;;;;;;;8.21;100.00;102628.81;1797599;78;85669;-72
2022/04/15 06:06:26;;;;;;;62.93;58.47;;;;;;;8.35;100.00;102643.96;1862491;75;85594;-74
2022/04/15 06:12:12;;;;;;;59.57;55.27;;;;;;;8.61;100.00;102632.63;1977922;71;39578;-73
2022/04/15 06:17:56;;;;;;;62.27;58.10;;;;;;;8.64;100.00;102641.89;1815064;76;86395;-73
2022/04/15 06:23:40;;;;;;;57.37;53.47;;;;;;;8.32;100.00;102646.66;1816889;78;86633;-73
2022/04/15 06:29:25;;;;;;;58.30;53.93;;;;;;;8.20;100.00;102647.91;1803293;78;86029;-72
2022/04/15 06:35:04;;;;;;;62.90;58.80;;;;;;;8.39;100.00;102645.20;1973914;71;39643;-73
2022/04/15 06:40:49;;;;;;;56.27;52.37;;;;;;;8.48;100.00;102654.38;1830754;76;86767;-73
2022/04/15 06:46:33;;;;;;;56.27;52.37;;;;;;;8.87;100.00;102656.44;1876722;75;85469;-70
2022/04/15 06:52:21;;;;;;;55.47;51.10;;;;;;;9.09;100.00;102652.99;1924876;71;85664;-74
2022/04/15 06:58:04;;;;;;;61.30;56.77;;;;;;;9.48;100.00;102657.19;1948618;71;39466;-72
2022/04/15 07:03:48;;;;;;;56.43;52.07;;;;;;;9.81;100.00;102653.08;1827929;76;86304;-73
2022/04/15 07:09:32;;;;;;;59.57;54.50;;;;;;;10.25;100.00;102655.41;1871744;75;86267;-76
2022/04/15 07:15:16;;;;;;;65.47;60.47;;;;;;;10.64;100.00;102662.22;1912771;74;86180;-79
2022/04/15 07:21:01;;;;;;;63.97;58.83;;;;;;;10.86;100.00;102657.73;1957367;71;39648;-74
2022/04/15 07:29:59;;;;;;;65.93;60.53;;;;;;;11.16;100.00;102667.84;1960534;71;39683;-74
2022/04/15 07:35:44;;;;;;;64.90;59.50;;;;;;;11.67;100.00;102666.97;1810108;78;86215;-73
2022/04/15 07:41:28;;;;;;;65.60;60.37;;;;;;;12.14;100.00;102671.24;1873733;75;85568;-72
2022/04/15 07:47:15;;;;;;;63.40;58.37;;;;;;;12.49;100.00;102656.22;1863924;76;86476;-74
2022/04/15 07:53:01;;;;;;;65.73;60.57;;;;;;;13.03;100.00;102655.37;1959034;71;39664;-74
2022/04/15 07:58:44;;;;;;;72.37;67.13;;;;;;;13.24;100.00;102656.52;1874744;74;86701;-70
2022/04/15 08:04:34;;;;;;;68.73;63.97;;;;;;;13.39;100.00;102648.32;1822606;78;86196;-74
2022/04/15 08:10:16;;;;;;;67.80;62.90;;;;;;;13.74;100.00;102643.70;1937902;72;86350;-76
2022/04/15 08:16:00;;;;;;;67.37;62.57;;;;;;;13.90;100.00;102643.33;1983805;71;39711;-71
2022/04/15 08:21:44;;;;;;;66.13;61.23;;;;;;;14.17;100.00;102645.53;1903973;74;86387;-72
2022/04/15 08:27:28;;;;;;;67.50;62.60;;;;;;;14.57;100.00;102636.13;1871471;75;86444;-69
2022/04/15 08:33:12;;;;;;;67.97;63.27;;;;;;;14.93;100.00;102634.97;1930180;73;86362;-73
2022/04/15 08:38:58;;;;;;;66.03;61.73;;;;;;;15.18;100.00;102634.25;1843977;76;86243;-75
2022/04/15 08:44:45;;;;;;;65.03;60.47;;;;;;;15.25;100.00;102633.43;1807269;78;86107;-72
2022/04/15 08:50:30;;;;;;;69.00;64.37;;;;;;;15.56;100.00;102631.07;1848720;76;86017;-72
2022/04/15 08:56:15;;;;;;;62.97;58.67;;;;;;;15.83;100.00;102641.48;1914210;73;86017;-72
2022/04/15 09:01:58;;;;;;;64.83;60.73;;;;;;;16.26;100.00;102648.55;1802682;78;85306;-72
2022/04/15 09:07:42;;;;;;;64.07;60.47;;;;;;;16.42;100.00;102646.61;1800554;78;86192;-72
2022/04/15 09:13:34;;;;;;;57.20;54.03;;;;;;;16.83;100.00;102647.43;1872876;75;85979;-73
2022/04/15 09:19:20;;;;;;;57.83;54.83;;;;;;;16.80;100.00;102648.84;1940190;72;86792;-73
2022/04/15 09:25:11;;;;;;;45.43;43.20;;;;;;;17.19;100.00;102652.40;1954662;71;39719;-73
2022/04/15 09:30:55;;;;;;;36.83;34.83;;;;;;;17.54;100.00;102647.20;1839151;76;86280;-74
2022/04/15 09:36:41;;;;;;;36.33;34.47;;;;;;;18.09;100.00;102648.30;1901665;74;86206;-71
2022/04/15 09:42:28;;;;;;;34.50;32.70;;;;;;;17.91;100.00;102646.73;1800215;77;86858;-71
2022/04/15 09:48:13;;;;;;;23.80;22.50;;;;;;;18.34;100.00;102654.85;1798893;78;86152;-71
2022/04/15 09:54:01;;;;;;;24.60;23.30;;;;;;;18.43;100.00;102650.28;1800295;78;86482;-72
2022/04/15 10:03:03;;;;;;;23.17;21.50;;;;;;;18.84;100.00;102643.15;1906474;74;85444;-72
2022/04/15 10:08:49;;;;;;;20.63;19.50;;;;;;;18.73;100.00;102642.99;1882618;74;86493;-72
2022/04/15 10:14:35;;;;;;;22.20;20.90;;;;;;;18.46;100.00;102650.52;1895837;75;86373;-71
2022/04/15 10:20:20;;;;;;;22.70;21.40;;;;;;;18.29;100.00;102643.07;1918210;72;86388;-71
2022/04/15 10:26:06;;;;;;;20.63;19.20;;;;;;;18.59;100.00;102640.59;1976008;71;39798;-71
2022/04/15 10:31:55;;;;;;;18.07;17.07;;;;;;;18.92;100.00;102634.05;1826438;76;86397;-71
2022/04/15 10:37:50;;;;;;;16.07;15.27;;;;;;;18.69;100.00;102638.25;1874392;73;86038;-72
2022/04/15 10:43:38;;;;;;;15.20;14.30;;;;;;;18.59;100.00;102635.80;1883972;73;86321;-72
2022/04/15 10:49:30;;;;;;;14.80;14.00;;;;;;;18.89;100.00;102632.40;1869082;75;86435;-71
2022/04/15 10:55:16;;;;;;;13.53;12.83;;;;;;;18.80;100.00;102623.77;1943644;72;86038;-72
2022/04/15 11:01:18;;;;;;;79.30;47.80;;;;;;;19.16;100.00;102630.41;1889759;74;86410;-72
2022/04/15 11:07:17;;;;;;;14.07;13.27;;;;;;;18.76;100.00;102621.84;1972948;71;40312;-71
2022/04/15 11:13:03;;;;;;;13.67;12.80;;;;;;;19.04;100.00;102623.20;1982958;71;39662;-73
2022/04/15 11:19:12;;;;;;;14.00;13.20;;;;;;;19.15;100.00;102615.48;1984386;71;39586;-73
2022/04/15 11:24:56;;;;;;;13.47;12.77;;;;;;;19.12;100.00;102609.61;1831330;76;86499;-73
2022/04/15 11:30:43;;;;;;;16.20;15.40;;;;;;;19.35;100.00;102608.73;1828537;76;86440;-74
2022/04/15 11:36:28;;;;;;;11.57;10.97;;;;;;;19.33;100.00;102607.66;1864240;75;86667;-72
2022/04/15 11:42:17;;;;;;;11.60;10.87;;;;;;;19.36;100.00;102607.60;1927125;73;86252;-70
2022/04/15 11:51:34;;;;;;;10.70;10.10;;;;;;;19.61;100.00;102597.41;1866506;76;86524;-72
2022/04/15 11:57:21;;;;;;;12.47;11.67;;;;;;;19.57;100.00;102603.97;1869486;76;85590;-72
2022/04/15 12:03:06;;;;;;;11.57;10.87;;;;;;;19.70;100.00;102601.23;1984781;71;39597;-72
2022/04/15 12:12:08;;;;;;;12.80;11.77;;;;;;;19.69;100.00;102590.25;1979947;71;39564;-72
2022/04/15 12:17:54;;;;;;;11.47;10.73;;;;;;;19.78;100.00;102594.06;1833425;76;86029;-72
2022/04/15 12:23:38;;;;;;;10.43;9.83;;;;;;;19.57;100.00;102585.07;1869654;75;86229;-73
2022/04/15 12:35:37;;;;;;;11.63;10.70;;;;;;;19.84;100.00;102589.47;1884250;73;86266;-72
2022/04/15 12:41:21;;;;;;;13.47;12.07;;;;;;;19.73;100.00;102599.20;1805306;77;86469;-74
2022/04/15 12:47:08;;;;;;;12.30;11.60;;;;;;;19.69;100.00;102594.48;1982895;71;39550;-74
2022/04/15 12:52:56;;;;;;;13.13;12.23;;;;;;;19.66;100.00;102583.81;1952120;70;85928;-73
2022/04/15 12:58:39;;;;;;;11.17;10.57;;;;;;;19.68;100.00;102583.77;1885808;74;86331;-71
2022/04/15 13:04:23;;;;;;;10.87;10.37;;;;;;;20.14;100.00;102580.24;1869226;75;86104;-70
2022/04/15 13:10:10;;;;;;;12.60;11.80;;;;;;;20.21;100.00;102582.92;1982173;71;39677;-72
2022/04/15 13:15:55;;;;;;;13.73;12.60;;;;;;;20.14;100.00;102581.65;1859906;76;86592;-72
2022/04/15 13:21:39;;;;;;;12.53;11.50;;;;;;;20.22;100.00;102582.36;1884784;73;86787;-73
2022/04/15 13:27:25;;;;;;;10.60;9.90;;;;;;;19.77;100.00;102480.42;1801173;76;85626;-71
2022/04/15 13:33:10;;;;;;;11.03;10.53;;;;;;;20.13;100.00;102574.33;1977102;71;39733;-69
2022/04/15 13:42:10;;;;;;;10.00;9.57;;;;;;;20.14;100.00;102576.84;1972707;71;39695;-74
2022/04/15 13:47:54;;;;;;;12.90;11.87;;;;;;;20.02;100.00;102572.83;1827836;76;86607;-80
2022/04/15 13:59:39;;;;;;;10.93;10.33;;;;;;;20.34;100.00;102564.39;1889660;74;86062;-71
2022/04/15 14:05:24;;;;;;;10.27;9.77;;;;;;;20.22;100.00;102556.39;1856799;76;86246;-71
2022/04/15 14:11:08;;;;;;;17.70;12.07;;;;;;;19.99;100.00;102555.36;1975459;71;39687;-71
2022/04/15 14:16:52;;;;;;;11.10;10.50;;;;;;;20.19;100.00;102554.19;1840124;76;86394;-70
2022/04/15 14:22:38;;;;;;;9.60;9.20;;;;;;;20.16;100.00;102546.32;1873665;74;86239;-74
2022/04/15 14:28:25;;;;;;;10.13;9.63;;;;;;;20.04;100.00;102557.26;1872935;75;86272;-74
2022/04/15 14:34:11;;;;;;;9.53;9.13;;;;;;;19.96;100.00;102547.52;1981596;71;39694;-75
2022/04/15 14:39:55;;;;;;;10.33;9.83;;;;;;;19.92;100.00;102554.08;1834818;75;86175;-75
2022/04/15 14:45:39;;;;;;;11.17;10.70;;;;;;;19.86;100.00;102553.88;1904306;74;85245;-72
2022/04/15 14:51:25;;;;;;;12.67;11.97;;;;;;;19.86;100.00;102558.11;1865687;76;86606;-77
2022/04/15 14:57:10;;;;;;;10.77;10.27;;;;;;;19.91;100.00;102553.81;1973857;71;39635;-77
2022/04/15 15:02:54;;;;;;;17.10;12.73;;;;;;;20.13;100.00;102551.18;1931278;72;86113;-71
2022/04/15 15:08:38;;;;;;;14.20;12.87;;;;;;;20.19;100.00;102545.73;1871329;75;86491;-78
2022/04/15 15:14:22;;;;;;;11.13;10.63;;;;;;;20.00;100.00;102549.15;1873963;75;86559;-79
2022/04/15 15:20:11;;;;;;;10.33;9.73;;;;;;;19.80;100.00;102550.90;1921757;71;39618;-74
2022/04/15 15:31:58;;;;;;;10.97;10.40;;;;;;;19.75;100.00;102553.80;1796125;78;85357;-71
2022/04/15 15:37:42;;;;;;;10.27;9.87;;;;;;;19.77;100.00;102552.33;1835591;76;86626;-74
2022/04/15 15:43:27;;;;;;;10.67;9.87;;;;;;;19.75;100.00;102547.58;1807081;77;86348;-68
2022/04/15 15:49:11;;;;;;;10.83;10.30;;;;;;;20.05;100.00;102552.45;1981999;71;39613;-68
2022/04/15 15:54:56;;;;;;;11.10;10.60;;;;;;;20.08;100.00;102551.83;1827018;76;86062;-74
2022/04/15 16:00:39;;;;;;;11.10;10.60;;;;;;;20.08;100.00;102544.78;1881533;73;86133;-73
2022/04/15 16:06:27;;;;;;;10.33;9.93;;;;;;;20.11;100.00;102542.17;1800810;77;85555;-68
2022/04/15 16:12:11;;;;;;;10.67;10.17;;;;;;;20.02;100.00;102545.45;1981533;71;39597;-68
2022/04/15 16:17:55;;;;;;;12.47;11.37;;;;;;;20.09;100.00;102543.64;1844269;76;86115;-70
2022/04/15 16:20:27;;;;;;;12.43;11.40;;;;;;;20.08;100.00;102545.63;1801348;77;937737;-71
2022/04/15 16:26:12;;;;;;;11.73;10.93;;;;;;;20.21;100.00;102553.86;1985001;71;39775;-79
2022/04/15 16:31:56;;;;;;;11.33;10.50;;;;;;;20.20;100.00;102556.41;1838026;76;86219;-79
2022/04/15 16:37:40;;;;;;;11.33;10.67;;;;;;;20.18;100.00;102553.92;1875333;75;86239;-76
2022/04/15 16:43:33;;;;;;;11.43;10.73;;;;;;;20.13;100.00;102554.00;1872787;76;86230;-71
2022/04/15 16:49:17;;;;;;;10.73;10.33;;;;;;;20.18;100.00;102555.33;1914749;74;86678;-71
2022/04/15 17:04:14;;;;;;;10.87;10.17;;;;;;;20.08;100.00;102565.94;1990675;69;39455;-71
2022/04/15 17:06:46;;;;;;;10.97;10.37;;;;;;;20.03;100.00;102568.27;1922895;73;936748;-73
2022/04/15 17:09:18;;;;;;;10.97;10.37;;;;;;;20.00;100.00;102559.86;1845618;75;940808;-69
2022/04/15 17:11:48;;;;;;;10.50;9.90;;;;;;;19.96;100.00;102560.22;1880248;74;940921;-75
2022/04/15 17:14:23;;;;;;;10.43;9.93;;;;;;;19.98;100.00;102562.14;1911886;73;938727;-69
2022/04/15 17:16:54;;;;;;;10.33;9.83;;;;;;;20.02;100.00;102563.80;1852530;75;941339;-72
2022/04/15 17:19:24;;;;;;;10.97;10.37;;;;;;;20.03;100.00;102564.04;1859953;74;938590;-69
2022/04/15 17:21:55;;;;;;;11.28;10.53;;;;;;;19.98;100.00;102564.15;1912956;73;940951;-69
2022/04/15 17:24:25;;;;;;;10.63;10.00;;;;;;;20.02;100.00;102567.19;1841523;74;941042;-76
2022/04/15 17:26:55;;;;;;;11.23;10.63;;;;;;;20.01;100.00;102566.34;1852321;74;939853;-71
2022/04/15 17:29:26;;;;;;;11.10;10.60;;;;;;;20.02;100.00;102564.37;1836126;76;940742;-71
2022/04/15 17:31:57;;;;;;;10.80;10.30;;;;;;;20.01;100.00;102569.17;1839206;74;940708;-71
2022/04/15 17:34:27;;;;;;;11.10;10.60;;;;;;;19.99;100.00;102562.98;1887129;74;941057;-71
2022/04/15 17:36:58;;;;;;;10.73;10.33;;;;;;;19.97;100.00;102570.36;1838101;75;940981;-73
2022/04/15 17:39:29;;;;;;;10.53;10.03;;;;;;;20.05;100.00;102572.20;1826790;76;939783;-80
2022/04/15 17:42:01;;;;;;;11.30;10.75;;;;;;;20.04;100.00;102569.95;1844955;75;941038;-71
2022/04/15 17:44:33;;;;;;;11.30;10.80;;;;;;;20.10;100.00;102569.30;1855206;75;940006;-73
2022/04/15 17:47:04;;;;;;;11.13;10.43;;;;;;;20.08;100.00;102571.58;1844947;76;942011;-74
2022/04/15 17:49:34;;;;;;;10.80;10.20;;;;;;;20.12;100.00;102569.82;1868286;74;938733;-76
2022/04/15 17:52:08;;;;;;;10.78;10.08;;;;;;;20.06;100.00;102566.84;1836802;75;940983;-76
2022/04/15 17:57:52;;;;;;;11.10;10.60;;;;;;;20.10;100.00;102570.15;1823475;76;86303;-76
2022/04/15 18:03:37;;;;;;;11.13;10.63;;;;;;;20.19;100.00;102568.87;1906985;73;85474;-73
2022/04/15 18:09:21;;;;;;;11.27;10.57;;;;;;;20.05;100.00;102566.00;1868345;75;86115;-80
2022/04/15 18:15:07;;;;;;;11.50;11.00;;;;;;;20.05;100.00;102570.80;1976000;71;39653;-79
2022/04/15 18:20:52;;;;;;;11.87;11.27;;;;;;;19.98;100.00;102563.55;1841378;76;86654;-74
2022/04/15 18:26:36;;;;;;;11.67;11.03;;;;;;;19.90;100.00;102571.87;1883873;73;86590;-74
2022/04/15 18:32:21;;;;;;;11.50;10.93;;;;;;;19.78;100.00;102579.39;1905651;74;86263;-73
2022/04/15 18:38:09;;;;;;;11.23;10.60;;;;;;;19.61;100.00;102581.91;1978847;71;39449;-74
2022/04/15 18:43:54;;;;;;;10.33;9.80;;;;;;;19.54;100.00;102592.73;1852422;75;86486;-68
2022/04/15 18:55:43;;;;;;;10.77;10.03;;;;;;;19.31;100.00;102616.12;1808447;78;86210;-74
2022/04/15 19:01:26;;;;;;;10.37;9.67;;;;;;;19.17;100.00;102627.27;1809164;77;86451;-70
2022/04/15 19:07:11;;;;;;;9.90;9.50;;;;;;;19.00;100.00;102638.17;1983417;71;39549;-70
2022/04/15 19:16:10;;;;;;;10.27;9.67;;;;;;;18.84;100.00;102652.16;1974927;71;39726;-74
2022/04/15 19:25:13;;;;;;;11.70;10.90;;;;;;;18.42;100.00;102660.69;1940076;71;40289;-79
2022/04/15 19:30:58;;;;;;;12.23;11.37;;;;;;;18.29;100.00;102667.55;1906361;74;86425;-73
2022/04/15 19:36:42;;;;;;;12.90;12.20;;;;;;;17.84;100.00;102677.15;1807229;78;86287;-78
2022/04/15 19:42:26;;;;;;;12.77;12.17;;;;;;;17.83;100.00;102696.55;1870260;75;86460;-72
2022/04/15 19:48:11;;;;;;;13.20;12.60;;;;;;;17.55;100.00;102702.25;1981187;71;39726;-75
2022/04/15 19:53:55;;;;;;;13.37;12.67;;;;;;;17.47;100.00;102714.09;1834816;76;86314;-71
2022/04/15 20:05:42;;;;;;;12.90;12.17;;;;;;;17.36;100.00;102725.94;1809040;78;86275;-71
2022/04/15 20:11:28;;;;;;;14.70;13.80;;;;;;;17.15;100.00;102732.17;1875099;75;85666;-73
2022/04/15 20:17:13;;;;;;;13.20;12.50;;;;;;;17.00;100.00;102743.97;1974001;71;41801;-72
2022/04/15 20:22:57;;;;;;;13.77;13.07;;;;;;;16.88;100.00;102751.29;1813610;76;85414;-78
2022/04/15 20:28:42;;;;;;;14.37;13.57;;;;;;;16.60;100.00;102771.50;1806956;78;86169;-75
2022/04/15 20:34:27;;;;;;;16.23;15.43;;;;;;;16.47;100.00;102765.84;1805617;77;86107;-73
2022/04/15 20:40:16;;;;;;;15.40;14.50;;;;;;;16.43;100.00;102754.87;1974748;71;39678;-68
2022/04/15 20:46:00;;;;;;;19.27;18.23;;;;;;;16.10;100.00;102766.02;1946963;71;39709;-68
2022/04/15 20:51:45;;;;;;;21.43;20.13;;;;;;;15.93;100.00;102764.00;1887346;74;86397;-74
2022/04/15 20:57:32;;;;;;;23.70;22.40;;;;;;;15.76;100.00;102771.23;1867451;74;86391;-72
2022/04/15 21:03:16;;;;;;;27.63;26.03;;;;;;;15.60;100.00;102776.48;1914059;72;86433;-71
2022/04/15 21:09:00;;;;;;;31.80;29.90;;;;;;;15.22;100.00;102786.02;1977935;71;39690;-69
2022/04/15 21:14:45;;;;;;;34.70;32.70;;;;;;;15.05;100.00;102783.94;1882182;74;86408;-70
2022/04/15 21:20:30;;;;;;;38.10;35.77;;;;;;;14.97;100.00;102782.45;1847896;76;86232;-70
2022/04/15 21:26:14;;;;;;;41.80;39.50;;;;;;;14.97;100.00;102789.45;1916209;72;85454;-73
2022/04/15 21:31:58;;;;;;;51.37;48.57;;;;;;;14.74;100.00;102791.23;1802604;78;86601;-73
2022/04/15 21:37:41;;;;;;;59.17;55.87;;;;;;;13.98;100.00;102802.97;1860984;75;86933;-71
2022/04/15 21:46:33;;;;;;;67.80;63.90;;;;;;;13.37;100.00;102800.44;1948226;73;86000;-71
2022/04/15 21:49:03;;;;;;;67.23;63.33;;;;;;;13.46;100.00;102814.25;1881590;74;938952;-73
2022/04/15 21:57:36;;;;;;;65.90;62.20;;;;;;;13.73;100.00;102808.78;1885631;73;86085;-74
2022/04/15 22:03:24;;;;;;;65.20;61.60;;;;;;;13.65;100.00;102817.03;1805463;77;86129;-72
2022/04/15 22:09:08;;;;;;;64.33;60.57;;;;;;;13.69;100.00;102817.66;1984451;71;39838;-74
2022/04/15 22:14:52;;;;;;;66.10;62.10;;;;;;;13.36;100.00;102830.84;1836023;76;85674;-74
2022/04/15 22:20:38;;;;;;;66.30;61.90;;;;;;;12.93;100.00;102834.29;1882278;73;86359;-72
2022/04/15 22:26:22;;;;;;;65.00;60.87;;;;;;;12.57;100.00;102839.25;1868873;76;86354;-71
2022/04/15 22:32:11;;;;;;;67.60;63.20;;;;;;;12.56;100.00;102845.91;1977676;71;39603;-74
2022/04/15 22:37:55;;;;;;;66.43;62.03;;;;;;;12.41;100.00;102848.97;1843934;76;86616;-72
2022/04/15 22:43:39;;;;;;;63.30;59.03;;;;;;;12.21;100.00;102849.39;1875205;74;86656;-74
2022/04/15 22:49:23;;;;;;;65.70;61.40;;;;;;;12.42;100.00;102854.81;1804978;77;86256;-74
2022/04/15 23:01:13;;;;;;;68.00;63.80;;;;;;;12.23;100.00;102872.30;1979477;71;39752;-72
2022/04/15 23:06:57;;;;;;;65.83;61.63;;;;;;;12.49;100.00;102877.30;1981631;69;86130;-73
2022/04/15 23:12:44;;;;;;;64.97;60.67;;;;;;;12.39;100.00;102878.47;1801527;78;86234;-73
2022/04/15 23:18:32;;;;;;;64.90;60.70;;;;;;;12.26;100.00;102881.00;1895739;75;86529;-73
2022/04/15 23:24:16;;;;;;;64.50;60.17;;;;;;;12.09;100.00;102888.98;1926475;73;85282;-72
2022/04/15 23:30:01;;;;;;;65.40;61.23;;;;;;;12.02;100.00;102900.81;1975873;71;39470;-71
2022/04/15 23:35:45;;;;;;;67.23;62.93;;;;;;;11.95;100.00;102902.32;1881682;74;86770;-73
2022/04/15 23:41:29;;;;;;;64.43;60.33;;;;;;;12.03;100.00;102899.70;1845910;76;86511;-73
2022/04/15 23:53:16;;;;;;;66.93;62.57;;;;;;;11.92;100.00;102893.61;1868470;75;86584;-72
2022/04/15 23:59:00;;;;;;;66.07;61.77;;;;;;;11.69;100.00;102893.05;1812814;78;86277;-72
